createdAt,value
2023-04-11T00:00:37.002Z,100342.72
2023-04-11T00:03:40.342Z,100341.03
2023-04-11T00:06:43.388Z,100329.53
2023-04-11T00:09:46.369Z,100338.37
2023-04-11T00:12:49.150Z,100328.91
2023-04-11T00:15:55.646Z,100326.97
2023-04-11T00:18:58.444Z,100331.41
2023-04-11T00:22:02.919Z,100318.97
2023-04-11T00:25:06.957Z,100324.75
2023-04-11T00:28:10.753Z,100317.53
2023-04-11T00:31:13.663Z,100315.31
2023-04-11T00:34:17.428Z,100312.78
2023-04-11T00:37:23.107Z,100302.63
2023-04-11T00:40:26.493Z,100298.41
2023-04-11T00:43:29.182Z,100301.94
2023-04-11T00:46:33.659Z,100300.78
2023-04-11T00:49:37.050Z,100297.81
2023-04-11T00:52:40.527Z,100293.19
2023-04-11T00:55:43.164Z,100288.28
2023-04-11T00:58:46.242Z,100290.84
2023-04-11T01:01:50.092Z,100289.13
2023-04-11T01:04:53.442Z,100275.94
2023-04-11T01:07:57.029Z,100278.72
2023-04-11T01:11:02.092Z,100279.62
2023-04-11T01:14:05.415Z,100287.25
2023-04-11T01:17:12.676Z,100279.62
2023-04-11T01:20:15.846Z,100279.06
2023-04-11T01:23:23.483Z,100289.03
2023-04-11T01:26:26.396Z,100284.25
2023-04-11T01:29:30.332Z,100286.06
2023-04-11T01:32:33.104Z,100286.06
2023-04-11T01:35:36.072Z,100286.03
2023-04-11T01:38:38.932Z,100296.00
2023-04-11T01:41:43.236Z,100292.91
2023-04-11T01:44:46.268Z,100274.94
2023-04-11T01:47:51.564Z,100277.13
2023-04-11T01:50:56.355Z,100275.97
2023-04-11T01:53:59.214Z,100271.44
2023-04-11T01:57:01.814Z,100271.44
2023-04-11T02:00:11.805Z,100268.84
2023-04-11T02:03:21.682Z,100265.03
2023-04-11T02:06:24.799Z,100271.56
2023-04-11T02:09:27.341Z,100270.50
2023-04-11T02:12:30.563Z,100269.28
2023-04-11T02:15:33.183Z,100267.56
2023-04-11T02:18:37.321Z,100251.09
2023-04-11T02:21:40.269Z,100255.34
2023-04-11T02:24:43.101Z,100247.94
2023-04-11T02:27:46.029Z,100248.25
2023-04-11T02:30:49.887Z,100235.28
2023-04-11T02:33:54.305Z,100233.59
2023-04-11T02:36:59.699Z,100233.63
2023-04-11T02:40:04.099Z,100242.38
2023-04-11T02:43:07.132Z,100242.22
2023-04-11T02:46:13.045Z,100242.53
2023-04-11T02:49:16.991Z,100230.53
2023-04-11T02:52:21.957Z,100242.09
2023-04-11T02:55:24.713Z,100236.94
2023-04-11T02:58:28.890Z,100241.31
2023-04-11T03:01:33.071Z,100232.31
2023-04-11T03:04:36.137Z,100242.69
2023-04-11T03:07:40.615Z,100240.34
2023-04-11T03:10:45.013Z,100236.47
2023-04-11T03:13:48.100Z,100232.75
2023-04-11T03:16:51.126Z,100231.50
2023-04-11T03:19:54.273Z,100239.03
2023-04-11T03:22:57.632Z,100244.34
2023-04-11T03:26:00.696Z,100241.78
2023-04-11T03:29:04.513Z,100240.75
2023-04-11T03:32:07.960Z,100237.41
2023-04-11T03:35:11.217Z,100228.81
2023-04-11T03:38:14.970Z,100232.44
2023-04-11T03:41:19.509Z,100215.84
2023-04-11T03:44:22.723Z,100222.84
2023-04-11T03:47:26.535Z,100203.66
2023-04-11T03:50:30.600Z,100213.16
2023-04-11T03:53:33.940Z,100207.97
2023-04-11T03:56:38.468Z,100198.47
2023-04-11T03:59:41.900Z,100206.22
2023-04-11T04:02:45.399Z,100203.22
2023-04-11T04:05:49.171Z,100207.28
2023-04-11T04:08:52.538Z,100200.31
2023-04-11T04:11:57.561Z,100210.16
2023-04-11T04:15:02.309Z,100209.22
2023-04-11T04:18:05.738Z,100207.59
2023-04-11T04:21:12.456Z,100208.38
2023-04-11T04:24:16.506Z,100210.50
2023-04-11T04:27:21.100Z,100202.34
2023-04-11T04:30:28.759Z,100204.59
2023-04-11T04:33:33.271Z,100199.69
2023-04-11T04:36:46.874Z,100194.03
2023-04-11T04:39:54.423Z,100192.22
2023-04-11T04:42:59.452Z,100191.75
2023-04-11T04:46:05.409Z,100190.06
2023-04-11T04:49:09.408Z,100186.31
2023-04-11T04:52:15.701Z,100187.94
2023-04-11T04:55:18.805Z,100185.09
2023-04-11T04:58:24.389Z,100184.47
2023-04-11T05:01:27.588Z,100182.03
2023-04-11T05:04:34.081Z,100190.38
2023-04-11T05:07:38.368Z,100189.94
2023-04-11T05:10:41.576Z,100196.81
2023-04-11T05:13:44.851Z,100199.75
2023-04-11T05:16:47.765Z,100202.84
2023-04-11T05:19:50.900Z,100198.81
2023-04-11T05:22:54.029Z,100208.16
2023-04-11T05:25:57.249Z,100216.81
2023-04-11T05:29:01.046Z,100207.44
2023-04-11T05:32:04.551Z,100209.19
2023-04-11T05:35:07.862Z,100210.41
2023-04-11T05:38:11.662Z,100207.28
2023-04-11T05:41:15.135Z,100204.13
2023-04-11T05:44:18.176Z,100194.06
2023-04-11T05:47:20.834Z,100187.91
2023-04-11T05:50:24.580Z,100182.63
2023-04-11T05:53:27.354Z,100172.47
2023-04-11T05:56:30.210Z,100182.34
2023-04-11T05:59:33.277Z,100181.78
2023-04-11T06:02:36.435Z,100183.88
2023-04-11T06:05:40.524Z,100175.75
2023-04-11T06:08:43.324Z,100168.34
2023-04-11T06:11:46.684Z,100172.31
2023-04-11T06:14:49.306Z,100165.03
2023-04-11T06:17:52.609Z,100158.75
2023-04-11T06:20:55.380Z,100173.50
2023-04-11T06:24:06.080Z,100172.06
2023-04-11T06:27:11.551Z,100163.94
2023-04-11T06:30:15.630Z,100158.63
2023-04-11T06:33:18.738Z,100161.28
2023-04-11T06:36:21.771Z,100158.47
2023-04-11T06:39:24.516Z,100160.13
2023-04-11T06:42:27.764Z,100158.87
2023-04-11T06:45:30.412Z,100165.47
2023-04-11T06:48:33.380Z,100156.75
2023-04-11T06:51:36.650Z,100156.41
2023-04-11T06:54:40.722Z,100154.06
2023-04-11T06:57:43.891Z,100166.63
2023-04-11T07:00:46.861Z,100158.09
2023-04-11T07:03:50.262Z,100155.22
2023-04-11T07:06:53.327Z,100154.00
2023-04-11T07:09:56.023Z,100141.78
2023-04-11T07:12:59.003Z,100128.41
2023-04-11T07:16:01.756Z,100144.59
2023-04-11T07:19:04.747Z,100136.50
2023-04-11T07:22:07.772Z,100130.81
2023-04-11T07:25:11.010Z,100134.16
2023-04-11T07:28:13.815Z,100136.38
2023-04-11T07:31:19.940Z,100139.13
2023-04-11T07:34:23.351Z,100146.84
2023-04-11T07:37:27.020Z,100148.63
2023-04-11T07:40:31.385Z,100157.03
2023-04-11T07:43:34.521Z,100144.28
2023-04-11T07:46:37.324Z,100141.50
2023-04-11T07:49:41.167Z,100131.87
2023-04-11T07:52:43.898Z,100126.84
2023-04-11T07:55:47.297Z,100125.72
2023-04-11T07:58:50.213Z,100122.25
2023-04-11T08:02:01.328Z,100120.28
2023-04-11T08:05:05.364Z,100120.44
2023-04-11T08:08:08.163Z,100106.00
2023-04-11T08:11:11.156Z,100104.78
2023-04-11T08:14:13.762Z,100100.12
2023-04-11T08:17:27.164Z,100102.78
2023-04-11T08:20:31.356Z,100095.22
2023-04-11T08:23:34.358Z,100097.09
2023-04-11T08:26:37.031Z,100093.34
2023-04-11T08:29:43.536Z,100089.41
2023-04-11T08:32:46.602Z,100084.19
2023-04-11T08:35:49.603Z,100070.53
2023-04-11T08:38:55.302Z,100060.97
2023-04-11T08:41:59.745Z,100051.88
2023-04-11T08:45:05.420Z,100046.91
2023-04-11T08:48:09.200Z,100049.25
2023-04-11T08:51:14.678Z,100047.84
2023-04-11T08:54:17.884Z,100033.47
2023-04-11T08:57:31.438Z,100031.72
2023-04-11T09:00:34.732Z,100041.16
2023-04-11T09:03:51.914Z,100030.78
2023-04-11T09:07:00.512Z,100032.09
2023-04-11T09:10:20.527Z,100032.91
2023-04-11T09:13:28.525Z,100038.56
2023-04-11T09:16:32.238Z,100025.97
2023-04-11T09:19:41.234Z,100027.94
2023-04-11T09:22:44.637Z,100021.50
2023-04-11T09:25:47.747Z,100007.72
2023-04-11T09:28:53.929Z,100003.50
2023-04-11T09:31:57.183Z,100008.50
2023-04-11T09:35:12.159Z,100016.69
2023-04-11T09:38:27.021Z,100015.22
2023-04-11T09:41:34.569Z,100003.34
2023-04-11T09:44:38.601Z,99999.50
2023-04-11T09:47:43.998Z,99996.94
2023-04-11T09:50:49.738Z,99986.59
2023-04-11T09:53:52.767Z,99986.28
2023-04-11T09:56:57.276Z,99984.47
2023-04-11T10:00:14.163Z,99967.91
2023-04-11T10:03:20.289Z,99977.91
2023-04-11T10:06:34.869Z,99979.75
2023-04-11T10:09:40.979Z,99973.59
2023-04-11T10:12:43.746Z,99967.72
2023-04-11T10:16:09.150Z,99956.75
2023-04-11T10:19:19.185Z,99955.09
2023-04-11T10:22:59.293Z,99944.84
2023-04-11T10:26:02.453Z,99931.09
2023-04-11T10:29:28.042Z,99930.28
2023-04-11T10:32:31.059Z,99919.59
2023-04-11T10:35:34.182Z,99911.97
2023-04-11T10:38:36.928Z,99909.28
2023-04-11T10:41:39.864Z,99906.00
2023-04-11T10:44:42.559Z,99901.19
2023-04-11T10:48:11.848Z,99894.91
2023-04-11T10:51:24.655Z,99883.22
2023-04-11T10:54:28.396Z,99889.53
2023-04-11T10:58:03.961Z,99887.03
2023-04-11T11:01:26.023Z,99887.25
2023-04-11T11:04:40.449Z,99886.44
2023-04-11T11:07:46.870Z,99884.31
2023-04-11T11:10:50.398Z,99865.25
2023-04-11T11:13:56.208Z,99858.97
2023-04-11T11:16:59.989Z,99856.72
2023-04-11T11:20:10.111Z,99859.56
2023-04-11T11:23:16.123Z,99847.06
2023-04-11T11:26:19.270Z,99844.34
2023-04-11T11:29:34.106Z,99845.94
2023-04-11T11:32:37.378Z,99839.31
2023-04-11T11:35:40.001Z,99833.56
2023-04-11T11:38:43.737Z,99823.91
2023-04-11T11:41:50.404Z,99830.66
2023-04-11T11:44:53.452Z,99838.28
2023-04-11T11:47:56.354Z,99838.66
2023-04-11T11:50:59.457Z,99841.94
2023-04-11T11:54:08.731Z,99834.59
2023-04-11T11:57:11.757Z,99829.03
2023-04-11T12:00:16.179Z,99826.59
2023-04-11T12:03:25.637Z,99820.31
2023-04-11T12:06:35.110Z,99814.47
2023-04-11T12:09:38.738Z,99829.00
2023-04-11T12:12:43.298Z,99825.50
2023-04-11T12:16:04.644Z,99823.69
2023-04-11T12:19:08.884Z,99822.12
2023-04-11T12:22:12.146Z,99819.31
2023-04-11T12:25:15.643Z,99818.53
2023-04-11T12:28:18.882Z,99818.53
2023-04-11T12:31:21.901Z,99822.69
2023-04-11T12:34:25.295Z,99823.03
2023-04-11T12:37:28.079Z,99815.41
2023-04-11T12:40:31.293Z,99804.63
2023-04-11T12:43:34.064Z,99812.91
2023-04-11T12:46:37.460Z,99803.03
2023-04-11T12:49:40.500Z,99793.38
2023-04-11T12:52:43.628Z,99792.66
2023-04-11T12:55:46.410Z,99790.06
2023-04-11T12:58:49.448Z,99792.63
2023-04-11T13:01:52.637Z,99786.81
2023-04-11T13:04:57.843Z,99780.94
2023-04-11T13:08:01.563Z,99772.78
2023-04-11T13:11:04.937Z,99768.91
2023-04-11T13:14:07.720Z,99749.19
2023-04-11T13:17:10.772Z,99760.34
2023-04-11T13:20:14.472Z,99752.81
2023-04-11T13:23:17.676Z,99745.53
2023-04-11T13:26:20.298Z,99747.31
2023-04-11T13:29:23.205Z,99742.84
2023-04-11T13:32:26.241Z,99737.56
2023-04-11T13:35:29.367Z,99737.03
2023-04-11T13:38:32.949Z,99743.09
2023-04-11T13:41:36.920Z,99743.97
2023-04-11T13:44:39.683Z,99737.44
2023-04-11T13:47:42.769Z,99738.47
2023-04-11T13:50:46.060Z,99738.22
2023-04-11T13:53:48.979Z,99731.41
2023-04-11T13:56:51.954Z,99738.97
2023-04-11T13:59:55.356Z,99743.59
2023-04-11T14:02:58.518Z,99740.75
2023-04-11T14:06:03.281Z,99741.59
2023-04-11T14:09:06.438Z,99736.31
2023-04-11T14:12:09.680Z,99750.69
2023-04-11T14:15:12.395Z,99744.94
2023-04-11T14:18:15.584Z,99750.63
2023-04-11T14:21:18.268Z,99756.50
2023-04-11T14:24:22.408Z,99758.75
2023-04-11T14:27:25.434Z,99774.63
2023-04-11T14:30:28.869Z,99780.59
2023-04-11T14:33:31.966Z,99784.09
2023-04-11T15:17:16.482Z,99811.22
2023-04-11T15:20:20.119Z,99814.00
2023-04-11T15:23:23.269Z,99805.16
2023-04-11T15:26:26.419Z,99797.72
2023-04-11T15:29:29.146Z,99798.03
2023-04-11T15:32:32.576Z,99794.91
2023-04-11T15:35:35.434Z,99796.38
2023-04-11T15:38:38.934Z,99786.38
2023-04-11T15:41:42.146Z,99787.53
2023-04-11T15:44:45.665Z,99787.66
2023-04-11T15:47:48.399Z,99783.12
2023-04-11T15:50:51.946Z,99784.47
2023-04-11T15:53:55.228Z,99786.22
2023-04-11T15:56:58.565Z,99779.19
2023-04-11T16:00:01.492Z,99779.75
2023-04-11T16:03:12.701Z,99782.59
2023-04-11T16:06:18.203Z,99792.06
2023-04-11T16:09:20.875Z,99785.03
2023-04-11T16:12:23.972Z,99784.66
2023-04-11T16:15:26.651Z,99793.38
2023-04-11T16:18:29.699Z,99792.16
2023-04-11T16:21:32.411Z,99802.66
2023-04-11T16:24:35.416Z,99780.28
2023-04-11T16:27:38.178Z,99784.34
2023-04-11T16:30:41.966Z,99783.44
2023-04-11T16:33:44.656Z,99796.41
2023-04-11T16:36:49.773Z,99783.19
2023-04-11T16:39:52.638Z,99784.66
2023-04-11T16:42:55.956Z,99769.47
2023-04-11T16:45:59.046Z,99760.00
2023-04-11T16:49:02.901Z,99760.50
2023-04-11T16:52:06.143Z,99768.72
2023-04-11T16:55:09.651Z,99769.84
2023-04-11T16:58:12.686Z,99775.03
2023-04-11T17:01:16.402Z,99777.59
2023-04-11T17:04:19.702Z,99767.44
2023-04-11T17:07:22.749Z,99773.97
2023-04-11T17:10:25.639Z,99773.50
2023-04-11T17:13:28.805Z,99776.94
2023-04-11T17:16:31.657Z,99782.78
2023-04-11T17:19:36.969Z,99777.34
2023-04-11T17:22:41.588Z,99769.06
2023-04-11T17:25:44.582Z,99766.19
2023-04-11T17:28:47.258Z,99764.41
2023-04-11T17:31:50.464Z,99767.63
2023-04-11T17:34:53.129Z,99773.47
2023-04-11T17:37:56.009Z,99773.25
2023-04-11T17:41:06.759Z,99767.91
2023-04-11T17:44:20.644Z,99780.63
2023-04-11T17:47:23.341Z,99780.13
2023-04-11T17:50:27.316Z,99780.31
2023-04-11T17:53:30.059Z,99780.13
2023-04-11T17:56:34.242Z,99771.94
2023-04-11T17:59:36.888Z,99782.75
2023-04-11T18:02:42.479Z,99784.84
2023-04-11T18:05:47.433Z,99791.25
2023-04-11T18:08:51.525Z,99796.81
2023-04-11T18:11:55.218Z,99803.78
2023-04-11T18:14:57.923Z,99799.19
2023-04-11T18:18:03.987Z,99803.00
2023-04-11T18:21:08.005Z,99807.97
2023-04-11T18:24:11.431Z,99809.25
2023-04-11T18:27:14.073Z,99817.81
2023-04-11T18:30:17.430Z,99820.19
2023-04-11T18:33:20.931Z,99817.09
2023-04-11T18:36:24.933Z,99819.63
2023-04-11T18:39:28.202Z,99819.19
2023-04-11T18:42:31.255Z,99818.63
2023-04-11T18:45:34.154Z,99816.75
2023-04-11T18:48:37.683Z,99812.47
2023-04-11T18:51:40.575Z,99819.97
2023-04-11T18:54:44.838Z,99828.75
2023-04-11T18:57:48.941Z,99831.53
2023-04-11T19:00:52.952Z,99834.09
2023-04-11T19:03:58.017Z,99828.84
2023-04-11T19:07:02.054Z,99819.66
2023-04-11T19:10:06.275Z,99829.97
2023-04-11T19:13:09.389Z,99825.78
2023-04-11T19:16:12.588Z,99824.19
2023-04-11T19:19:15.827Z,99824.19
2023-04-11T19:22:18.643Z,99828.28
2023-04-11T19:25:22.026Z,99825.56
2023-04-11T19:28:24.762Z,99832.03
2023-04-11T19:31:28.744Z,99842.97
2023-04-11T19:34:33.241Z,99848.97
2023-04-11T20:03:23.630Z,99813.62
2023-04-11T20:06:28.262Z,99817.03
2023-04-11T20:09:31.115Z,99817.19
2023-04-11T20:12:35.426Z,99809.56
2023-04-11T20:15:38.469Z,99812.97
2023-04-11T20:18:41.490Z,99827.13
2023-04-11T20:21:44.188Z,99822.38
2023-04-11T20:24:47.816Z,99803.13
2023-04-11T20:27:50.530Z,99795.91
2023-04-11T20:30:53.548Z,99787.03
2023-04-11T20:33:57.155Z,99799.94
2023-04-11T20:37:04.503Z,99800.97
2023-04-11T20:40:09.735Z,99801.41
2023-04-11T20:43:13.684Z,99802.19
2023-04-11T20:46:17.985Z,99796.00
2023-04-11T20:49:20.960Z,99802.56
2023-04-11T20:52:23.572Z,99796.66
2023-04-11T20:55:26.654Z,99784.97
2023-04-11T20:58:29.300Z,99788.50
2023-04-11T21:01:33.593Z,99795.13
2023-04-11T21:04:36.673Z,99789.66
2023-04-11T21:07:40.661Z,99792.69
2023-04-11T21:10:43.417Z,99777.38
2023-04-11T21:13:49.598Z,99777.44
2023-04-11T21:16:52.338Z,99779.34
2023-04-11T21:19:55.377Z,99782.69
2023-04-11T21:22:58.921Z,99789.91
2023-04-11T21:26:01.888Z,99783.81
2023-04-11T21:29:04.917Z,99783.81
2023-04-11T21:32:12.232Z,99780.72
2023-04-11T21:35:15.414Z,99785.84
2023-04-11T21:38:18.348Z,99789.09
2023-04-11T21:41:21.063Z,99786.75
2023-04-11T21:44:27.105Z,99786.91
2023-04-11T21:47:29.712Z,99783.19
2023-04-11T21:50:33.409Z,99762.56
2023-04-11T21:53:36.147Z,99760.97
2023-04-11T21:56:39.105Z,99758.84
2023-04-11T21:59:41.754Z,99761.06
2023-04-11T22:02:45.389Z,99751.00
2023-04-11T22:05:50.461Z,99769.59
2023-04-11T22:08:53.236Z,99758.97
2023-04-11T22:11:56.224Z,99766.66
2023-04-11T22:14:59.913Z,99763.50
2023-04-11T22:18:03.519Z,99765.34
2023-04-11T22:21:09.380Z,99761.38
2023-04-11T22:24:12.388Z,99753.19
2023-04-11T22:27:18.405Z,99743.13
2023-04-11T22:30:23.284Z,99747.88
2023-04-11T22:33:26.028Z,99745.75
2023-04-11T22:36:35.438Z,99727.00
2023-04-11T22:39:38.197Z,99741.81
2023-04-11T22:42:41.722Z,99743.91
2023-04-11T22:45:46.901Z,99742.59
2023-04-11T22:48:49.861Z,99738.09
2023-04-11T22:51:59.321Z,99738.34
2023-04-11T22:55:04.781Z,99738.09
2023-04-11T22:58:07.768Z,99738.62
2023-04-11T23:01:15.640Z,99735.72
2023-04-11T23:04:20.008Z,99734.63
2023-04-11T23:07:25.247Z,99720.34
2023-04-11T23:10:28.931Z,99710.56
2023-04-11T23:13:32.247Z,99715.03
2023-04-11T23:16:34.896Z,99713.47
2023-04-11T23:19:38.165Z,99719.81
2023-04-11T23:22:42.592Z,99723.50
2023-04-11T23:25:45.808Z,99719.00
2023-04-11T23:28:49.618Z,99714.50
2023-04-11T23:31:52.619Z,99716.66
2023-04-11T23:34:55.263Z,99725.13
2023-04-11T23:37:59.991Z,99742.09
2023-04-11T23:41:05.219Z,99738.91
2023-04-11T23:44:08.246Z,99737.59
2023-04-11T23:47:11.123Z,99738.38
2023-04-11T23:50:14.189Z,99752.16
2023-04-11T23:53:17.688Z,99747.38
2023-04-11T23:56:21.442Z,99749.78
2023-04-11T23:59:24.483Z,99754.28
